19°C Temp
14°C Dewpoint
73% Humidity
Temperature
5 KM/H
3 MPH
3 KTS
70°
East North
East

Wind Speed
Partly Cloudy
Conditions
Pressure 1017.92 (hPa) - 30.06 (in)
Visibility 6.2 (mi) - 10.0 (km)

Current Conditions
LIME
Location 40(km)
Metar :LIME 131950Z 07003KT 9999 FEW070 19/14 Q1018 NOSIG
Mon 13th July 21:50 pm

Airport
  Metar Aviation API Data Provided by https://www.checkwx.com/ PHP scripts by weather34.com ©2020